sensor_id;sensor_type;location;lat;lon;timestamp;P1;durP1;ratioP1;P2;durP2;ratioP2
6280;SDS011;3173;48.204;11.612;2024-02-21T00:00:56;7.37;;;1.90;;
6280;SDS011;3173;48.204;11.612;2024-02-21T00:03:22;5.90;;;1.40;;
6280;SDS011;3173;48.204;11.612;2024-02-21T00:05:48;9.13;;;2.10;;
6280;SDS011;3173;48.204;11.612;2024-02-21T00:08:15;6.73;;;2.40;;
6280;SDS011;3173;48.204;11.612;2024-02-21T00:10:41;4.00;;;2.40;;
6280;SDS011;3173;48.204;11.612;2024-02-21T00:13:07;8.03;;;2.93;;
6280;SDS011;3173;48.204;11.612;2024-02-21T00:15:33;3.73;;;1.90;;
6280;SDS011;3173;48.204;11.612;2024-02-21T00:17:59;6.57;;;2.47;;
6280;SDS011;3173;48.204;11.612;2024-02-21T00:20:25;6.83;;;2.73;;
6280;SDS011;3173;48.204;11.612;2024-02-21T00:22:51;4.53;;;1.90;;
6280;SDS011;3173;48.204;11.612;2024-02-21T00:25:17;5.70;;;1.77;;
6280;SDS011;3173;48.204;11.612;2024-02-21T00:27:43;9.70;;;2.23;;
6280;SDS011;3173;48.204;11.612;2024-02-21T00:30:10;5.73;;;2.30;;
6280;SDS011;3173;48.204;11.612;2024-02-21T00:32:36;8.23;;;2.27;;
6280;SDS011;3173;48.204;11.612;2024-02-21T00:35:02;3.93;;;1.53;;
6280;SDS011;3173;48.204;11.612;2024-02-21T00:37:28;4.33;;;2.30;;
6280;SDS011;3173;48.204;11.612;2024-02-21T00:39:54;6.20;;;2.03;;
6280;SDS011;3173;48.204;11.612;2024-02-21T00:42:21;5.80;;;1.90;;
6280;SDS011;3173;48.204;11.612;2024-02-21T00:44:47;6.33;;;2.10;;
6280;SDS011;3173;48.204;11.612;2024-02-21T00:47:13;6.07;;;1.83;;
6280;SDS011;3173;48.204;11.612;2024-02-21T00:49:39;6.33;;;1.90;;
6280;SDS011;3173;48.204;11.612;2024-02-21T00:52:05;10.30;;;1.90;;
6280;SDS011;3173;48.204;11.612;2024-02-21T00:54:31;8.00;;;2.20;;
6280;SDS011;3173;48.204;11.612;2024-02-21T00:56:58;8.50;;;2.37;;
6280;SDS011;3173;48.204;11.612;2024-02-21T00:59:24;5.47;;;2.10;;
6280;SDS011;3173;48.204;11.612;2024-02-21T01:01:50;6.53;;;1.77;;
6280;SDS011;3173;48.204;11.612;2024-02-21T01:04:16;4.97;;;1.80;;
6280;SDS011;3173;48.204;11.612;2024-02-21T01:06:42;5.60;;;2.17;;
6280;SDS011;3173;48.204;11.612;2024-02-21T01:09:09;5.83;;;2.20;;
6280;SDS011;3173;48.204;11.612;2024-02-21T01:11:35;4.60;;;1.60;;
6280;SDS011;3173;48.204;11.612;2024-02-21T01:14:01;10.00;;;2.20;;
6280;SDS011;3173;48.204;11.612;2024-02-21T01:16:28;3.23;;;1.70;;
6280;SDS011;3173;48.204;11.612;2024-02-21T01:18:54;6.70;;;1.80;;
6280;SDS011;3173;48.204;11.612;2024-02-21T01:21:20;4.03;;;1.87;;
6280;SDS011;3173;48.204;11.612;2024-02-21T01:23:46;8.30;;;1.97;;
6280;SDS011;3173;48.204;11.612;2024-02-21T01:26:12;6.13;;;1.60;;
6280;SDS011;3173;48.204;11.612;2024-02-21T01:28:40;4.17;;;1.60;;
6280;SDS011;3173;48.204;11.612;2024-02-21T01:31:07;4.50;;;1.73;;
6280;SDS011;3173;48.204;11.612;2024-02-21T01:33:33;5.53;;;1.93;;
6280;SDS011;3173;48.204;11.612;2024-02-21T01:36:04;4.83;;;1.80;;
6280;SDS011;3173;48.204;11.612;2024-02-21T01:38:33;2.10;;;1.37;;
6280;SDS011;3173;48.204;11.612;2024-02-21T01:40:59;5.13;;;1.60;;
6280;SDS011;3173;48.204;11.612;2024-02-21T01:43:25;5.33;;;2.13;;
6280;SDS011;3173;48.204;11.612;2024-02-21T01:45:53;4.53;;;1.77;;
6280;SDS011;3173;48.204;11.612;2024-02-21T01:48:20;3.17;;;1.73;;
6280;SDS011;3173;48.204;11.612;2024-02-21T01:50:48;1.70;;;1.30;;
6280;SDS011;3173;48.204;11.612;2024-02-21T01:53:16;3.80;;;1.90;;
6280;SDS011;3173;48.204;11.612;2024-02-21T01:55:44;4.73;;;2.20;;
6280;SDS011;3173;48.204;11.612;2024-02-21T01:58:12;6.70;;;2.20;;
6280;SDS011;3173;48.204;11.612;2024-02-21T02:00:38;7.10;;;1.40;;
6280;SDS011;3173;48.204;11.612;2024-02-21T02:03:05;5.17;;;1.63;;
6280;SDS011;3173;48.204;11.612;2024-02-21T02:05:32;2.80;;;1.40;;
6280;SDS011;3173;48.204;11.612;2024-02-21T02:07:58;5.23;;;1.80;;
6280;SDS011;3173;48.204;11.612;2024-02-21T02:10:24;12.53;;;1.70;;
6280;SDS011;3173;48.204;11.612;2024-02-21T02:12:52;4.83;;;1.50;;
6280;SDS011;3173;48.204;11.612;2024-02-21T02:15:18;4.63;;;1.70;;
6280;SDS011;3173;48.204;11.612;2024-02-21T02:17:44;5.60;;;1.70;;
6280;SDS011;3173;48.204;11.612;2024-02-21T02:20:10;2.97;;;1.57;;
6280;SDS011;3173;48.204;11.612;2024-02-21T02:22:37;5.07;;;2.03;;
6280;SDS011;3173;48.204;11.612;2024-02-21T02:25:05;7.40;;;2.40;;
6280;SDS011;3173;48.204;11.612;2024-02-21T02:27:31;4.40;;;1.27;;
6280;SDS011;3173;48.204;11.612;2024-02-21T02:29:57;2.70;;;1.50;;
6280;SDS011;3173;48.204;11.612;2024-02-21T02:32:23;4.90;;;2.20;;
6280;SDS011;3173;48.204;11.612;2024-02-21T02:34:49;3.87;;;1.60;;
6280;SDS011;3173;48.204;11.612;2024-02-21T02:37:15;7.07;;;2.17;;
6280;SDS011;3173;48.204;11.612;2024-02-21T02:39:41;3.77;;;1.50;;
6280;SDS011;3173;48.204;11.612;2024-02-21T02:42:07;6.33;;;1.90;;
6280;SDS011;3173;48.204;11.612;2024-02-21T02:44:34;3.63;;;1.53;;
6280;SDS011;3173;48.204;11.612;2024-02-21T02:47:00;6.27;;;1.93;;
6280;SDS011;3173;48.204;11.612;2024-02-21T02:49:26;6.40;;;2.67;;
6280;SDS011;3173;48.204;11.612;2024-02-21T02:51:52;2.13;;;1.47;;
6280;SDS011;3173;48.204;11.612;2024-02-21T02:54:18;4.30;;;1.73;;
6280;SDS011;3173;48.204;11.612;2024-02-21T02:56:44;5.23;;;1.60;;
6280;SDS011;3173;48.204;11.612;2024-02-21T02:59:10;4.40;;;1.50;;
6280;SDS011;3173;48.204;11.612;2024-02-21T03:01:36;3.80;;;1.70;;
6280;SDS011;3173;48.204;11.612;2024-02-21T03:04:03;4.87;;;1.80;;
6280;SDS011;3173;48.204;11.612;2024-02-21T03:06:29;6.63;;;1.80;;
6280;SDS011;3173;48.204;11.612;2024-02-21T03:08:55;2.20;;;1.30;;
6280;SDS011;3173;48.204;11.612;2024-02-21T03:11:21;3.70;;;1.40;;
6280;SDS011;3173;48.204;11.612;2024-02-21T03:13:54;5.53;;;1.70;;
6280;SDS011;3173;48.204;11.612;2024-02-21T03:16:20;3.00;;;1.30;;
6280;SDS011;3173;48.204;11.612;2024-02-21T03:18:46;8.13;;;1.57;;
6280;SDS011;3173;48.204;11.612;2024-02-21T03:21:13;3.40;;;1.30;;
6280;SDS011;3173;48.204;11.612;2024-02-21T03:23:39;4.13;;;1.40;;
6280;SDS011;3173;48.204;11.612;2024-02-21T03:26:05;2.60;;;1.47;;
6280;SDS011;3173;48.204;11.612;2024-02-21T03:28:32;7.30;;;1.97;;
6280;SDS011;3173;48.204;11.612;2024-02-21T03:30:58;2.60;;;1.20;;
6280;SDS011;3173;48.204;11.612;2024-02-21T03:33:24;4.70;;;2.03;;
6280;SDS011;3173;48.204;11.612;2024-02-21T03:35:51;7.60;;;1.73;;
6280;SDS011;3173;48.204;11.612;2024-02-21T03:38:17;3.53;;;1.50;;
6280;SDS011;3173;48.204;11.612;2024-02-21T03:40:43;4.73;;;1.27;;
6280;SDS011;3173;48.204;11.612;2024-02-21T03:43:09;3.50;;;1.40;;
6280;SDS011;3173;48.204;11.612;2024-02-21T03:45:36;2.20;;;1.57;;
6280;SDS011;3173;48.204;11.612;2024-02-21T03:48:03;3.20;;;1.60;;
6280;SDS011;3173;48.204;11.612;2024-02-21T03:50:29;4.73;;;1.40;;
6280;SDS011;3173;48.204;11.612;2024-02-21T03:52:55;5.40;;;1.73;;
6280;SDS011;3173;48.204;11.612;2024-02-21T03:55:21;5.57;;;1.70;;
6280;SDS011;3173;48.204;11.612;2024-02-21T03:57:47;6.30;;;1.63;;
6280;SDS011;3173;48.204;11.612;2024-02-21T04:00:13;4.23;;;1.70;;
6280;SDS011;3173;48.204;11.612;2024-02-21T04:02:39;2.60;;;1.30;;
6280;SDS011;3173;48.204;11.612;2024-02-21T04:05:06;2.63;;;1.00;;
6280;SDS011;3173;48.204;11.612;2024-02-21T04:07:36;3.77;;;1.30;;
6280;SDS011;3173;48.204;11.612;2024-02-21T04:10:02;2.27;;;1.10;;
6280;SDS011;3173;48.204;11.612;2024-02-21T04:12:28;1.97;;;1.00;;
6280;SDS011;3173;48.204;11.612;2024-02-21T04:14:54;3.60;;;1.07;;
6280;SDS011;3173;48.204;11.612;2024-02-21T04:17:21;3.90;;;1.37;;
6280;SDS011;3173;48.204;11.612;2024-02-21T04:19:47;2.83;;;1.20;;
6280;SDS011;3173;48.204;11.612;2024-02-21T04:22:13;5.53;;;1.33;;
6280;SDS011;3173;48.204;11.612;2024-02-21T04:24:39;5.23;;;1.60;;
6280;SDS011;3173;48.204;11.612;2024-02-21T04:27:05;1.93;;;1.10;;
6280;SDS011;3173;48.204;11.612;2024-02-21T04:29:31;2.77;;;1.50;;
6280;SDS011;3173;48.204;11.612;2024-02-21T04:31:58;5.80;;;1.57;;
6280;SDS011;3173;48.204;11.612;2024-02-21T04:34:24;5.43;;;1.43;;
6280;SDS011;3173;48.204;11.612;2024-02-21T04:36:51;4.83;;;1.20;;
6280;SDS011;3173;48.204;11.612;2024-02-21T04:39:17;4.63;;;1.20;;
6280;SDS011;3173;48.204;11.612;2024-02-21T04:41:43;1.87;;;1.10;;
6280;SDS011;3173;48.204;11.612;2024-02-21T04:44:10;7.10;;;1.50;;
6280;SDS011;3173;48.204;11.612;2024-02-21T04:46:36;2.50;;;1.23;;
6280;SDS011;3173;48.204;11.612;2024-02-21T04:49:02;3.83;;;1.37;;
6280;SDS011;3173;48.204;11.612;2024-02-21T04:51:28;2.30;;;1.10;;
6280;SDS011;3173;48.204;11.612;2024-02-21T04:53:54;2.37;;;1.53;;
6280;SDS011;3173;48.204;11.612;2024-02-21T04:56:20;3.30;;;1.20;;
6280;SDS011;3173;48.204;11.612;2024-02-21T04:58:46;3.00;;;1.13;;
6280;SDS011;3173;48.204;11.612;2024-02-21T05:01:12;5.10;;;1.67;;
6280;SDS011;3173;48.204;11.612;2024-02-21T05:03:38;2.80;;;1.20;;
6280;SDS011;3173;48.204;11.612;2024-02-21T05:06:05;2.50;;;1.17;;
6280;SDS011;3173;48.204;11.612;2024-02-21T05:08:31;7.70;;;1.27;;
6280;SDS011;3173;48.204;11.612;2024-02-21T05:10:57;5.10;;;1.53;;
6280;SDS011;3173;48.204;11.612;2024-02-21T05:13:23;2.17;;;1.13;;
6280;SDS011;3173;48.204;11.612;2024-02-21T05:15:49;2.40;;;1.20;;
6280;SDS011;3173;48.204;11.612;2024-02-21T05:18:15;7.70;;;1.40;;
6280;SDS011;3173;48.204;11.612;2024-02-21T05:20:41;3.80;;;1.23;;
6280;SDS011;3173;48.204;11.612;2024-02-21T05:23:07;2.70;;;1.40;;
6280;SDS011;3173;48.204;11.612;2024-02-21T05:25:33;2.37;;;0.80;;
6280;SDS011;3173;48.204;11.612;2024-02-21T05:27:59;5.27;;;1.50;;
6280;SDS011;3173;48.204;11.612;2024-02-21T05:30:28;2.40;;;1.30;;
6280;SDS011;3173;48.204;11.612;2024-02-21T05:32:54;6.57;;;1.77;;
6280;SDS011;3173;48.204;11.612;2024-02-21T05:35:24;3.70;;;1.43;;
6280;SDS011;3173;48.204;11.612;2024-02-21T05:37:50;2.47;;;1.33;;
6280;SDS011;3173;48.204;11.612;2024-02-21T05:40:17;4.13;;;1.47;;
6280;SDS011;3173;48.204;11.612;2024-02-21T05:42:43;2.60;;;1.47;;
6280;SDS011;3173;48.204;11.612;2024-02-21T05:45:10;6.40;;;1.17;;
6280;SDS011;3173;48.204;11.612;2024-02-21T05:47:36;5.00;;;1.37;;
6280;SDS011;3173;48.204;11.612;2024-02-21T05:50:02;2.70;;;1.33;;
6280;SDS011;3173;48.204;11.612;2024-02-21T05:52:28;1.37;;;1.10;;
6280;SDS011;3173;48.204;11.612;2024-02-21T05:54:55;1.47;;;1.13;;
6280;SDS011;3173;48.204;11.612;2024-02-21T05:57:21;2.20;;;1.20;;
6280;SDS011;3173;48.204;11.612;2024-02-21T05:59:48;6.43;;;2.00;;
6280;SDS011;3173;48.204;11.612;2024-02-21T06:02:14;5.60;;;2.73;;
6280;SDS011;3173;48.204;11.612;2024-02-21T06:04:40;4.13;;;2.07;;
6280;SDS011;3173;48.204;11.612;2024-02-21T06:07:07;3.63;;;1.40;;
6280;SDS011;3173;48.204;11.612;2024-02-21T06:09:34;6.10;;;2.50;;
6280;SDS011;3173;48.204;11.612;2024-02-21T06:12:00;2.10;;;1.00;;
6280;SDS011;3173;48.204;11.612;2024-02-21T06:14:26;3.57;;;1.47;;
6280;SDS011;3173;48.204;11.612;2024-02-21T06:16:52;2.73;;;1.77;;
6280;SDS011;3173;48.204;11.612;2024-02-21T06:19:18;2.17;;;1.27;;
6280;SDS011;3173;48.204;11.612;2024-02-21T06:21:44;1.90;;;1.10;;
6280;SDS011;3173;48.204;11.612;2024-02-21T06:24:10;2.03;;;1.30;;
6280;SDS011;3173;48.204;11.612;2024-02-21T06:26:37;2.83;;;1.60;;
6280;SDS011;3173;48.204;11.612;2024-02-21T06:29:05;2.57;;;1.27;;
6280;SDS011;3173;48.204;11.612;2024-02-21T06:31:31;2.73;;;1.60;;
6280;SDS011;3173;48.204;11.612;2024-02-21T06:33:57;2.60;;;1.53;;
6280;SDS011;3173;48.204;11.612;2024-02-21T06:36:23;2.57;;;1.30;;
6280;SDS011;3173;48.204;11.612;2024-02-21T06:38:49;2.23;;;1.40;;
6280;SDS011;3173;48.204;11.612;2024-02-21T06:41:16;9.00;;;1.53;;
6280;SDS011;3173;48.204;11.612;2024-02-21T06:43:44;2.27;;;1.00;;
6280;SDS011;3173;48.204;11.612;2024-02-21T06:46:11;3.37;;;1.40;;
6280;SDS011;3173;48.204;11.612;2024-02-21T06:48:37;2.20;;;1.20;;
6280;SDS011;3173;48.204;11.612;2024-02-21T06:51:03;2.57;;;1.33;;
6280;SDS011;3173;48.204;11.612;2024-02-21T06:53:29;5.00;;;1.30;;
6280;SDS011;3173;48.204;11.612;2024-02-21T06:55:55;1.23;;;0.87;;
6280;SDS011;3173;48.204;11.612;2024-02-21T06:58:22;1.90;;;1.30;;
6280;SDS011;3173;48.204;11.612;2024-02-21T07:00:48;2.70;;;2.00;;
6280;SDS011;3173;48.204;11.612;2024-02-21T07:03:14;2.60;;;1.40;;
6280;SDS011;3173;48.204;11.612;2024-02-21T07:05:40;2.80;;;1.17;;
6280;SDS011;3173;48.204;11.612;2024-02-21T07:08:06;3.00;;;1.33;;
6280;SDS011;3173;48.204;11.612;2024-02-21T07:10:32;3.07;;;1.10;;
6280;SDS011;3173;48.204;11.612;2024-02-21T07:12:58;3.47;;;1.90;;
6280;SDS011;3173;48.204;11.612;2024-02-21T07:15:25;6.73;;;1.43;;
6280;SDS011;3173;48.204;11.612;2024-02-21T07:17:52;2.73;;;1.47;;
6280;SDS011;3173;48.204;11.612;2024-02-21T07:20:18;2.80;;;1.33;;
6280;SDS011;3173;48.204;11.612;2024-02-21T07:22:44;1.57;;;1.03;;
6280;SDS011;3173;48.204;11.612;2024-02-21T07:25:11;5.83;;;1.20;;
6280;SDS011;3173;48.204;11.612;2024-02-21T07:27:37;3.70;;;1.77;;
6280;SDS011;3173;48.204;11.612;2024-02-21T07:30:03;1.40;;;1.20;;
6280;SDS011;3173;48.204;11.612;2024-02-21T07:32:30;2.50;;;1.30;;
6280;SDS011;3173;48.204;11.612;2024-02-21T07:34:56;5.13;;;1.40;;
6280;SDS011;3173;48.204;11.612;2024-02-21T07:37:22;1.70;;;1.30;;
6280;SDS011;3173;48.204;11.612;2024-02-21T07:39:48;3.73;;;1.37;;
6280;SDS011;3173;48.204;11.612;2024-02-21T07:42:14;4.07;;;1.40;;
6280;SDS011;3173;48.204;11.612;2024-02-21T07:44:41;7.17;;;1.37;;
6280;SDS011;3173;48.204;11.612;2024-02-21T07:47:07;1.80;;;1.30;;
6280;SDS011;3173;48.204;11.612;2024-02-21T07:49:33;5.13;;;1.33;;
6280;SDS011;3173;48.204;11.612;2024-02-21T07:52:06;3.73;;;1.00;;
6280;SDS011;3173;48.204;11.612;2024-02-21T07:54:32;1.87;;;1.10;;
6280;SDS011;3173;48.204;11.612;2024-02-21T07:56:58;2.10;;;1.00;;
6280;SDS011;3173;48.204;11.612;2024-02-21T07:59:24;5.07;;;1.00;;
6280;SDS011;3173;48.204;11.612;2024-02-21T08:01:51;5.93;;;1.83;;
6280;SDS011;3173;48.204;11.612;2024-02-21T08:04:17;1.43;;;0.80;;
6280;SDS011;3173;48.204;11.612;2024-02-21T08:06:43;8.07;;;1.40;;
6280;SDS011;3173;48.204;11.612;2024-02-21T08:09:10;3.73;;;1.13;;
6280;SDS011;3173;48.204;11.612;2024-02-21T08:11:36;4.70;;;1.17;;
6280;SDS011;3173;48.204;11.612;2024-02-21T08:14:02;5.20;;;1.30;;
6280;SDS011;3173;48.204;11.612;2024-02-21T08:16:29;8.53;;;1.00;;
6280;SDS011;3173;48.204;11.612;2024-02-21T08:18:55;4.07;;;0.90;;
6280;SDS011;3173;48.204;11.612;2024-02-21T08:21:21;4.20;;;0.90;;
6280;SDS011;3173;48.204;11.612;2024-02-21T08:23:47;2.60;;;0.97;;
6280;SDS011;3173;48.204;11.612;2024-02-21T08:26:16;2.37;;;0.80;;
6280;SDS011;3173;48.204;11.612;2024-02-21T08:28:42;3.53;;;0.90;;
6280;SDS011;3173;48.204;11.612;2024-02-21T08:31:08;1.50;;;0.80;;
6280;SDS011;3173;48.204;11.612;2024-02-21T08:33:35;3.40;;;0.90;;
6280;SDS011;3173;48.204;11.612;2024-02-21T08:36:01;2.60;;;0.80;;
6280;SDS011;3173;48.204;11.612;2024-02-21T08:38:28;2.87;;;1.00;;
6280;SDS011;3173;48.204;11.612;2024-02-21T08:40:54;2.33;;;0.80;;
6280;SDS011;3173;48.204;11.612;2024-02-21T08:43:20;5.20;;;1.00;;
6280;SDS011;3173;48.204;11.612;2024-02-21T08:45:47;2.27;;;0.70;;
6280;SDS011;3173;48.204;11.612;2024-02-21T08:48:13;2.20;;;0.77;;
6280;SDS011;3173;48.204;11.612;2024-02-21T08:50:39;3.73;;;0.80;;
6280;SDS011;3173;48.204;11.612;2024-02-21T08:53:05;1.20;;;0.63;;
6280;SDS011;3173;48.204;11.612;2024-02-21T08:55:31;2.30;;;0.80;;
6280;SDS011;3173;48.204;11.612;2024-02-21T08:57:57;1.37;;;0.80;;
6280;SDS011;3173;48.204;11.612;2024-02-21T09:00:23;3.93;;;0.80;;
6280;SDS011;3173;48.204;11.612;2024-02-21T09:02:52;2.27;;;1.10;;
6280;SDS011;3173;48.204;11.612;2024-02-21T09:05:20;1.67;;;0.77;;
6280;SDS011;3173;48.204;11.612;2024-02-21T09:07:47;2.23;;;0.80;;
6280;SDS011;3173;48.204;11.612;2024-02-21T09:10:13;1.90;;;1.00;;
6280;SDS011;3173;48.204;11.612;2024-02-21T09:12:39;2.60;;;1.13;;
6280;SDS011;3173;48.204;11.612;2024-02-21T09:15:05;4.07;;;0.90;;
6280;SDS011;3173;48.204;11.612;2024-02-21T09:17:31;4.73;;;0.80;;
6280;SDS011;3173;48.204;11.612;2024-02-21T09:19:58;2.90;;;0.80;;
6280;SDS011;3173;48.204;11.612;2024-02-21T09:22:28;3.77;;;0.80;;
6280;SDS011;3173;48.204;11.612;2024-02-21T09:24:54;3.03;;;0.80;;
6280;SDS011;3173;48.204;11.612;2024-02-21T09:27:20;3.30;;;0.80;;
6280;SDS011;3173;48.204;11.612;2024-02-21T09:29:47;2.87;;;0.80;;
6280;SDS011;3173;48.204;11.612;2024-02-21T09:32:13;5.43;;;1.00;;
6280;SDS011;3173;48.204;11.612;2024-02-21T09:34:39;5.43;;;0.80;;
6280;SDS011;3173;48.204;11.612;2024-02-21T09:37:05;1.90;;;0.60;;
6280;SDS011;3173;48.204;11.612;2024-02-21T09:39:32;2.90;;;0.83;;
6280;SDS011;3173;48.204;11.612;2024-02-21T09:41:58;1.20;;;0.60;;
6280;SDS011;3173;48.204;11.612;2024-02-21T09:44:25;1.50;;;0.60;;
6280;SDS011;3173;48.204;11.612;2024-02-21T09:47:03;3.30;;;0.80;;
6280;SDS011;3173;48.204;11.612;2024-02-21T09:49:33;4.03;;;0.90;;
6280;SDS011;3173;48.204;11.612;2024-02-21T09:52:03;2.50;;;0.70;;
6280;SDS011;3173;48.204;11.612;2024-02-21T09:54:30;1.97;;;0.70;;
6280;SDS011;3173;48.204;11.612;2024-02-21T09:56:56;1.63;;;0.90;;
6280;SDS011;3173;48.204;11.612;2024-02-21T09:59:23;1.53;;;0.60;;
6280;SDS011;3173;48.204;11.612;2024-02-21T10:01:50;1.13;;;0.57;;
6280;SDS011;3173;48.204;11.612;2024-02-21T10:04:16;0.93;;;0.60;;
6280;SDS011;3173;48.204;11.612;2024-02-21T10:06:44;2.60;;;0.70;;
6280;SDS011;3173;48.204;11.612;2024-02-21T10:09:19;3.10;;;0.73;;
6280;SDS011;3173;48.204;11.612;2024-02-21T10:11:48;8.03;;;0.80;;
6280;SDS011;3173;48.204;11.612;2024-02-21T10:14:14;5.63;;;1.00;;
6280;SDS011;3173;48.204;11.612;2024-02-21T10:16:41;2.87;;;0.77;;
6280;SDS011;3173;48.204;11.612;2024-02-21T10:19:15;2.80;;;0.70;;
6280;SDS011;3173;48.204;11.612;2024-02-21T10:21:41;3.30;;;0.70;;
6280;SDS011;3173;48.204;11.612;2024-02-21T10:24:08;3.20;;;1.00;;
6280;SDS011;3173;48.204;11.612;2024-02-21T10:26:35;2.20;;;0.60;;
6280;SDS011;3173;48.204;11.612;2024-02-21T10:29:03;1.40;;;0.50;;
6280;SDS011;3173;48.204;11.612;2024-02-21T10:31:29;3.07;;;0.87;;
6280;SDS011;3173;48.204;11.612;2024-02-21T10:33:59;2.03;;;0.70;;
6280;SDS011;3173;48.204;11.612;2024-02-21T10:36:30;4.07;;;1.00;;
6280;SDS011;3173;48.204;11.612;2024-02-21T10:38:56;3.47;;;0.83;;
6280;SDS011;3173;48.204;11.612;2024-02-21T10:41:23;3.77;;;0.70;;
6280;SDS011;3173;48.204;11.612;2024-02-21T10:43:50;1.43;;;0.73;;
6280;SDS011;3173;48.204;11.612;2024-02-21T10:46:19;3.77;;;1.20;;
6280;SDS011;3173;48.204;11.612;2024-02-21T10:48:46;2.33;;;0.70;;
6280;SDS011;3173;48.204;11.612;2024-02-21T10:56:26;3.20;;;0.90;;
6280;SDS011;3173;48.204;11.612;2024-02-21T10:58:52;1.07;;;0.50;;
6280;SDS011;3173;48.204;11.612;2024-02-21T11:01:20;2.10;;;0.60;;
6280;SDS011;3173;48.204;11.612;2024-02-21T11:03:47;4.07;;;0.70;;
6280;SDS011;3173;48.204;11.612;2024-02-21T11:06:14;5.47;;;0.70;;
6280;SDS011;3173;48.204;11.612;2024-02-21T11:08:41;4.20;;;0.80;;
6280;SDS011;3173;48.204;11.612;2024-02-21T11:11:07;1.80;;;0.90;;
6280;SDS011;3173;48.204;11.612;2024-02-21T11:13:35;2.10;;;0.67;;
6280;SDS011;3173;48.204;11.612;2024-02-21T11:16:08;1.73;;;0.70;;
6280;SDS011;3173;48.204;11.612;2024-02-21T11:18:35;2.93;;;0.70;;
6280;SDS011;3173;48.204;11.612;2024-02-21T11:21:01;2.27;;;0.70;;
6280;SDS011;3173;48.204;11.612;2024-02-21T11:23:30;0.90;;;0.60;;
6280;SDS011;3173;48.204;11.612;2024-02-21T11:28:31;2.00;;;0.60;;
6280;SDS011;3173;48.204;11.612;2024-02-21T11:33:53;1.40;;;0.80;;
6280;SDS011;3173;48.204;11.612;2024-02-21T11:36:23;2.37;;;0.90;;
6280;SDS011;3173;48.204;11.612;2024-02-21T11:38:50;7.93;;;0.70;;
6280;SDS011;3173;48.204;11.612;2024-02-21T11:41:17;1.60;;;0.80;;
6280;SDS011;3173;48.204;11.612;2024-02-21T11:43:43;1.17;;;0.60;;
6280;SDS011;3173;48.204;11.612;2024-02-21T11:46:09;1.30;;;0.73;;
6280;SDS011;3173;48.204;11.612;2024-02-21T11:48:35;2.00;;;0.60;;
6280;SDS011;3173;48.204;11.612;2024-02-21T11:51:01;2.20;;;0.70;;
6280;SDS011;3173;48.204;11.612;2024-02-21T11:53:28;3.47;;;0.60;;
6280;SDS011;3173;48.204;11.612;2024-02-21T11:55:56;2.07;;;0.70;;
6280;SDS011;3173;48.204;11.612;2024-02-21T11:58:22;1.60;;;0.67;;
6280;SDS011;3173;48.204;11.612;2024-02-21T12:00:49;1.83;;;0.60;;
6280;SDS011;3173;48.204;11.612;2024-02-21T12:03:15;2.73;;;0.60;;
6280;SDS011;3173;48.204;11.612;2024-02-21T12:05:41;0.90;;;0.50;;
6280;SDS011;3173;48.204;11.612;2024-02-21T12:08:07;2.20;;;0.73;;
6280;SDS011;3173;48.204;11.612;2024-02-21T12:10:34;2.50;;;0.90;;
6280;SDS011;3173;48.204;11.612;2024-02-21T12:13:10;2.90;;;0.90;;
6280;SDS011;3173;48.204;11.612;2024-02-21T12:15:39;1.47;;;0.67;;
6280;SDS011;3173;48.204;11.612;2024-02-21T12:18:06;2.23;;;0.63;;
6280;SDS011;3173;48.204;11.612;2024-02-21T12:20:32;3.70;;;0.60;;
6280;SDS011;3173;48.204;11.612;2024-02-21T12:23:01;1.50;;;0.60;;
6280;SDS011;3173;48.204;11.612;2024-02-21T12:25:28;1.67;;;0.60;;
6280;SDS011;3173;48.204;11.612;2024-02-21T12:27:54;2.00;;;0.60;;
6280;SDS011;3173;48.204;11.612;2024-02-21T12:30:21;2.20;;;0.70;;
6280;SDS011;3173;48.204;11.612;2024-02-21T12:32:47;2.83;;;0.50;;
6280;SDS011;3173;48.204;11.612;2024-02-21T12:35:13;4.40;;;0.60;;
6280;SDS011;3173;48.204;11.612;2024-02-21T12:37:40;0.90;;;0.50;;
6280;SDS011;3173;48.204;11.612;2024-02-21T12:40:06;1.57;;;0.50;;
6280;SDS011;3173;48.204;11.612;2024-02-21T12:42:33;4.87;;;0.60;;
6280;SDS011;3173;48.204;11.612;2024-02-21T12:44:59;1.00;;;0.50;;
6280;SDS011;3173;48.204;11.612;2024-02-21T12:47:26;0.90;;;0.40;;
6280;SDS011;3173;48.204;11.612;2024-02-21T12:49:52;6.83;;;0.60;;
6280;SDS011;3173;48.204;11.612;2024-02-21T12:52:18;1.00;;;0.50;;
6280;SDS011;3173;48.204;11.612;2024-02-21T12:54:45;2.40;;;0.60;;
6280;SDS011;3173;48.204;11.612;2024-02-21T12:57:11;3.00;;;0.70;;
6280;SDS011;3173;48.204;11.612;2024-02-21T12:59:37;1.80;;;0.50;;
6280;SDS011;3173;48.204;11.612;2024-02-21T13:02:03;1.60;;;0.60;;
6280;SDS011;3173;48.204;11.612;2024-02-21T13:04:29;1.80;;;0.67;;
6280;SDS011;3173;48.204;11.612;2024-02-21T13:06:55;1.10;;;0.60;;
6280;SDS011;3173;48.204;11.612;2024-02-21T13:09:21;1.10;;;0.40;;
6280;SDS011;3173;48.204;11.612;2024-02-21T13:11:47;1.00;;;0.60;;
6280;SDS011;3173;48.204;11.612;2024-02-21T13:14:16;1.23;;;0.57;;
6280;SDS011;3173;48.204;11.612;2024-02-21T13:16:42;1.10;;;0.53;;
6280;SDS011;3173;48.204;11.612;2024-02-21T13:19:08;3.30;;;0.80;;
6280;SDS011;3173;48.204;11.612;2024-02-21T13:21:35;7.40;;;0.70;;
6280;SDS011;3173;48.204;11.612;2024-02-21T13:24:01;2.40;;;0.70;;
6280;SDS011;3173;48.204;11.612;2024-02-21T13:26:28;2.10;;;0.60;;
6280;SDS011;3173;48.204;11.612;2024-02-21T13:28:54;3.00;;;1.10;;
6280;SDS011;3173;48.204;11.612;2024-02-21T13:31:20;1.60;;;0.87;;
6280;SDS011;3173;48.204;11.612;2024-02-21T13:33:46;3.97;;;0.80;;
6280;SDS011;3173;48.204;11.612;2024-02-21T13:36:13;1.00;;;0.60;;
6280;SDS011;3173;48.204;11.612;2024-02-21T13:38:39;1.67;;;0.67;;
6280;SDS011;3173;48.204;11.612;2024-02-21T13:41:05;3.07;;;0.63;;
6280;SDS011;3173;48.204;11.612;2024-02-21T13:43:32;2.60;;;0.60;;
6280;SDS011;3173;48.204;11.612;2024-02-21T13:45:58;1.30;;;0.60;;
6280;SDS011;3173;48.204;11.612;2024-02-21T13:48:25;2.27;;;0.63;;
6280;SDS011;3173;48.204;11.612;2024-02-21T13:50:52;2.30;;;0.70;;
6280;SDS011;3173;48.204;11.612;2024-02-21T13:53:18;1.80;;;0.70;;
6280;SDS011;3173;48.204;11.612;2024-02-21T13:55:45;1.97;;;0.90;;
6280;SDS011;3173;48.204;11.612;2024-02-21T13:58:11;2.43;;;0.70;;
6280;SDS011;3173;48.204;11.612;2024-02-21T14:00:38;1.97;;;0.60;;
6280;SDS011;3173;48.204;11.612;2024-02-21T14:03:04;2.60;;;0.70;;
6280;SDS011;3173;48.204;11.612;2024-02-21T14:05:30;4.90;;;0.70;;
6280;SDS011;3173;48.204;11.612;2024-02-21T14:07:56;9.53;;;0.60;;
6280;SDS011;3173;48.204;11.612;2024-02-21T14:10:23;0.90;;;0.60;;
6280;SDS011;3173;48.204;11.612;2024-02-21T14:12:49;1.10;;;0.60;;
6280;SDS011;3173;48.204;11.612;2024-02-21T14:15:15;2.97;;;0.70;;
6280;SDS011;3173;48.204;11.612;2024-02-21T14:17:44;1.47;;;0.70;;
6280;SDS011;3173;48.204;11.612;2024-02-21T14:20:10;1.57;;;0.73;;
6280;SDS011;3173;48.204;11.612;2024-02-21T14:22:39;6.30;;;0.70;;
6280;SDS011;3173;48.204;11.612;2024-02-21T14:25:05;1.83;;;0.70;;
6280;SDS011;3173;48.204;11.612;2024-02-21T14:27:31;1.40;;;0.70;;
6280;SDS011;3173;48.204;11.612;2024-02-21T14:29:57;1.83;;;0.60;;
6280;SDS011;3173;48.204;11.612;2024-02-21T14:32:23;3.00;;;0.90;;
6280;SDS011;3173;48.204;11.612;2024-02-21T14:34:50;5.40;;;0.80;;
6280;SDS011;3173;48.204;11.612;2024-02-21T14:37:16;1.87;;;0.70;;
6280;SDS011;3173;48.204;11.612;2024-02-21T14:39:42;1.70;;;0.70;;
6280;SDS011;3173;48.204;11.612;2024-02-21T14:42:08;1.10;;;0.60;;
6280;SDS011;3173;48.204;11.612;2024-02-21T14:44:35;2.80;;;0.80;;
6280;SDS011;3173;48.204;11.612;2024-02-21T14:47:02;2.17;;;0.80;;
6280;SDS011;3173;48.204;11.612;2024-02-21T14:49:28;1.23;;;0.90;;
6280;SDS011;3173;48.204;11.612;2024-02-21T14:51:54;1.33;;;0.70;;
6280;SDS011;3173;48.204;11.612;2024-02-21T14:54:21;2.07;;;0.80;;
6280;SDS011;3173;48.204;11.612;2024-02-21T14:56:48;1.03;;;0.60;;
6280;SDS011;3173;48.204;11.612;2024-02-21T14:59:14;3.60;;;1.20;;
6280;SDS011;3173;48.204;11.612;2024-02-21T15:01:41;1.60;;;0.70;;
6280;SDS011;3173;48.204;11.612;2024-02-21T15:04:08;1.37;;;0.90;;
6280;SDS011;3173;48.204;11.612;2024-02-21T15:06:34;5.87;;;3.27;;